Time;durP1;ratioP1;P1;durP2;ratioP2;P2;SDS_P1;SDS_P2;PMS_P1;PMS_P2;Temp;Humidity;BMP_temperature;BMP_pressure;BME280_temperature;BME280_humidity;BME280_pressure;Samples;Min_cycle;Max_cycle;Signal;HPM_P1;HPM_P2
2024/02/04 00:00:36;;;;;;;1.60;0.95;;;20.80;46.60;;;;;;5090785;28;20032;-56
2024/02/04 00:03:03;;;;;;;2.60;1.23;;;20.80;46.70;;;;;;5090947;28;20059;-54
2024/02/04 00:05:28;;;;;;;3.05;1.20;;;20.80;46.70;;;;;;5094790;28;20115;-56
2024/02/04 00:07:54;;;;;;;2.13;1.10;;;20.80;46.70;;;;;;5073695;28;20526;-54
2024/02/04 00:10:20;;;;;;;1.95;0.98;;;20.80;46.70;;;;;;5090230;28;20048;-55
2024/02/04 00:12:46;;;;;;;1.67;0.90;;;20.80;46.70;;;;;;5092199;28;20332;-54
2024/02/04 00:15:12;;;;;;;2.28;1.05;;;20.80;46.70;;;;;;5089783;28;20051;-52
2024/02/04 00:17:38;;;;;;;2.20;0.93;;;20.70;46.70;;;;;;5091533;28;20040;-54
2024/02/04 00:20:05;;;;;;;1.63;0.88;;;20.80;46.80;;;;;;5091895;28;20107;-53
2024/02/04 00:22:33;;;;;;;1.48;0.95;;;20.80;46.80;;;;;;5095593;28;20099;-51
2024/02/04 00:25:04;;;;;;;1.85;0.85;;;20.70;46.80;;;;;;5093707;28;20045;-54
2024/02/04 00:27:31;;;;;;;1.10;0.60;;;20.80;46.80;;;;;;5092245;28;20070;-52
2024/02/04 00:29:58;;;;;;;1.00;0.55;;;20.70;46.80;;;;;;5094426;28;20031;-53
2024/02/04 00:32:25;;;;;;;1.33;0.65;;;20.70;46.80;;;;;;5091668;28;20025;-56
2024/02/04 00:34:51;;;;;;;2.42;0.75;;;20.70;46.90;;;;;;5088156;28;20024;-53
2024/02/04 00:37:17;;;;;;;2.13;0.85;;;20.70;46.90;;;;;;5087042;28;20396;-56
2024/02/04 00:39:43;;;;;;;2.70;0.93;;;20.70;46.90;;;;;;5077989;28;20119;-54
2024/02/04 00:42:09;;;;;;;0.95;0.70;;;20.70;46.90;;;;;;5077008;28;20032;-55
2024/02/04 00:44:34;;;;;;;2.47;1.02;;;20.70;46.90;;;;;;5077421;28;20052;-54
2024/02/04 00:47:00;;;;;;;1.25;0.50;;;20.70;46.90;;;;;;5091849;28;20358;-55
2024/02/04 00:49:26;;;;;;;1.27;0.80;;;20.70;46.90;;;;;;5074626;28;20039;-54
2024/02/04 00:51:52;;;;;;;1.42;0.75;;;20.70;47.00;;;;;;5077548;28;20016;-56
2024/02/04 00:54:18;;;;;;;1.30;0.65;;;20.70;47.30;;;;;;5097395;28;20028;-50
2024/02/04 00:56:44;;;;;;;1.33;0.60;;;20.70;47.00;;;;;;5076730;28;20044;-54
2024/02/04 00:59:10;;;;;;;1.38;0.80;;;20.70;47.00;;;;;;5076806;28;20020;-54
2024/02/04 01:01:36;;;;;;;1.63;0.80;;;20.60;47.00;;;;;;5075824;28;20028;-56
2024/02/04 01:04:02;;;;;;;1.95;0.80;;;20.60;47.00;;;;;;5076586;28;20108;-54
2024/02/04 01:06:29;;;;;;;2.60;0.90;;;20.60;47.00;;;;;;5096770;28;20024;-52
2024/02/04 01:08:55;;;;;;;2.05;0.70;;;20.60;47.00;;;;;;5091672;28;20027;-56
2024/02/04 01:11:21;;;;;;;1.98;1.10;;;20.60;47.00;;;;;;5077369;28;20468;-53
2024/02/04 01:13:48;;;;;;;2.47;1.00;;;20.60;47.10;;;;;;5094993;28;20023;-53
2024/02/04 01:16:13;;;;;;;2.83;1.15;;;20.60;47.10;;;;;;5094624;28;20126;-53
2024/02/04 01:18:39;;;;;;;2.25;1.23;;;20.60;47.10;;;;;;5071361;28;20175;-53
2024/02/04 01:21:05;;;;;;;2.08;1.00;;;20.60;47.10;;;;;;5095149;28;20035;-51
2024/02/04 01:23:31;;;;;;;2.40;0.93;;;20.60;47.10;;;;;;5076952;28;20524;-57
2024/02/04 01:25:57;;;;;;;2.90;1.08;;;20.60;47.20;;;;;;5071609;28;20394;-53
2024/02/04 01:28:22;;;;;;;3.47;0.95;;;20.60;47.20;;;;;;5060244;28;20111;-54
2024/02/04 01:30:48;;;;;;;2.30;0.98;;;20.60;47.20;;;;;;5094185;28;20024;-50
2024/02/04 01:33:14;;;;;;;2.67;1.10;;;20.60;47.20;;;;;;5093027;28;20025;-55
2024/02/04 01:35:40;;;;;;;2.50;1.02;;;20.60;47.80;;;;;;5093893;28;20829;-55
2024/02/04 01:38:06;;;;;;;1.60;0.70;;;20.60;47.20;;;;;;5059773;28;20036;-51
2024/02/04 01:40:31;;;;;;;0.82;0.63;;;20.60;47.20;;;;;;5094527;28;20027;-53
2024/02/04 01:42:57;;;;;;;1.95;0.90;;;20.60;47.30;;;;;;5094390;28;20035;-53
2024/02/04 01:45:24;;;;;;;1.70;1.00;;;20.60;47.30;;;;;;5074543;28;20048;-52
2024/02/04 01:47:50;;;;;;;1.95;0.80;;;20.60;47.30;;;;;;5094110;28;20118;-55
2024/02/04 01:50:17;;;;;;;2.08;0.98;;;20.50;47.80;;;;;;5094023;28;20403;-50
2024/02/04 01:52:44;;;;;;;2.28;0.93;;;20.50;47.20;;;;;;5076830;28;20415;-50
2024/02/04 01:55:10;;;;;;;1.98;0.90;;;20.50;47.30;;;;;;5093883;28;20070;-53
2024/02/04 01:57:36;;;;;;;1.92;0.90;;;20.50;47.30;;;;;;5093748;28;20354;-53
2024/02/04 02:00:04;;;;;;;1.40;0.85;;;20.50;47.30;;;;;;5075397;28;20059;-53
2024/02/04 02:02:33;;;;;;;2.92;1.20;;;20.50;47.30;;;;;;5094041;28;20120;-52
2024/02/04 02:05:00;;;;;;;2.38;1.00;;;20.50;47.30;;;;;;5093074;28;20371;-54
2024/02/04 02:07:27;;;;;;;1.52;0.90;;;20.50;47.30;;;;;;5077058;28;20500;-56
2024/02/04 02:09:53;;;;;;;4.32;1.15;;;20.50;47.30;;;;;;5093846;28;20328;-54
2024/02/04 02:12:29;;;;;;;3.70;1.63;;;20.50;47.30;;;;;;5076232;28;20054;-54
2024/02/04 02:15:18;;;;;;;2.85;1.08;;;20.50;47.30;;;;;;5093903;28;20474;-56
2024/02/04 02:18:10;;;;;;;1.60;0.90;;;20.50;47.30;;;;;;5093455;28;20055;-54
2024/02/04 02:21:11;;;;;;;1.90;1.00;;;20.50;47.30;;;;;;5093030;28;20347;-50
2024/02/04 02:23:49;;;;;;;2.92;1.10;;;20.50;47.30;;;;;;5091554;28;20016;-53
2024/02/04 02:26:16;;;;;;;1.95;0.90;;;20.40;47.30;;;;;;5091888;28;20028;-54
2024/02/04 02:28:42;;;;;;;1.50;0.60;;;20.40;47.30;;;;;;5094035;28;20382;-50
2024/02/04 02:31:08;;;;;;;2.78;1.00;;;20.40;47.30;;;;;;5093518;28;20103;-54
2024/02/04 02:33:33;;;;;;;2.13;1.10;;;20.40;47.30;;;;;;5093624;28;20031;-54
2024/02/04 02:36:06;;;;;;;2.72;1.17;;;20.40;47.30;;;;;;5074614;28;20023;-54
2024/02/04 02:38:35;;;;;;;2.10;1.00;;;20.40;47.40;;;;;;5075689;28;20028;-51
2024/02/04 02:41:08;;;;;;;3.45;0.90;;;20.40;47.30;;;;;;5075042;28;20020;-54
2024/02/04 02:43:35;;;;;;;1.83;0.90;;;20.40;47.40;;;;;;5092633;28;20032;-55
2024/02/04 02:46:01;;;;;;;2.55;1.17;;;20.40;47.30;;;;;;5074881;28;20072;-55
2024/02/04 02:48:27;;;;;;;3.85;1.23;;;20.40;47.30;;;;;;5072993;28;20034;-53
2024/02/04 02:50:53;;;;;;;2.40;0.80;;;20.40;47.30;;;;;;5054918;28;20029;-54
2024/02/04 02:53:20;;;;;;;2.60;1.08;;;20.40;47.30;;;;;;5054226;28;20039;-54
2024/02/04 02:55:49;;;;;;;1.77;0.95;;;20.40;47.30;;;;;;5051203;28;20031;-56
2024/02/04 02:58:15;;;;;;;2.78;1.30;;;20.40;47.30;;;;;;5072426;28;20028;-54
2024/02/04 03:00:40;;;;;;;3.63;1.00;;;20.40;47.30;;;;;;5055074;28;20016;-56
2024/02/04 03:03:06;;;;;;;2.67;1.00;;;20.40;47.30;;;;;;5054752;28;20020;-54
2024/02/04 03:05:32;;;;;;;1.65;0.82;;;20.40;47.30;;;;;;5037957;28;20043;-50
2024/02/04 03:07:59;;;;;;;2.65;0.90;;;20.40;47.30;;;;;;5063189;28;20031;-53
2024/02/04 03:10:25;;;;;;;1.30;0.75;;;20.40;47.30;;;;;;5043850;28;20056;-51
2024/02/04 03:12:50;;;;;;;2.03;1.20;;;20.40;47.30;;;;;;5072039;28;20159;-55
2024/02/04 03:15:17;;;;;;;2.80;1.00;;;20.40;47.30;;;;;;5054980;28;20024;-51
2024/02/04 03:17:43;;;;;;;1.83;1.00;;;20.40;47.30;;;;;;5072422;28;20100;-56
2024/02/04 03:20:10;;;;;;;2.90;1.38;;;20.30;47.20;;;;;;5072641;28;20032;-53
2024/02/04 03:22:36;;;;;;;2.17;1.00;;;20.30;47.20;;;;;;5054286;28;20043;-52
2024/02/04 03:25:02;;;;;;;2.17;1.00;;;20.30;47.20;;;;;;5053561;28;20107;-51
2024/02/04 03:27:28;;;;;;;4.28;1.35;;;20.30;47.20;;;;;;5038009;28;20021;-48
2024/02/04 03:29:54;;;;;;;2.03;0.98;;;20.30;47.20;;;;;;5056262;28;20407;-53
2024/02/04 03:32:20;;;;;;;3.38;1.27;;;20.30;47.20;;;;;;5055820;28;20103;-53
2024/02/04 03:34:46;;;;;;;3.38;1.00;;;20.30;47.20;;;;;;5054125;28;20028;-53
2024/02/04 03:37:12;;;;;;;2.65;1.23;;;20.30;47.20;;;;;;5054816;28;20048;-50
2024/02/04 03:39:38;;;;;;;1.17;0.90;;;20.30;47.10;;;;;;5054619;28;20505;-50
2024/02/04 03:42:04;;;;;;;1.30;1.00;;;20.30;47.10;;;;;;5054554;28;20020;-55
2024/02/04 03:44:31;;;;;;;1.60;0.95;;;20.30;47.10;;;;;;5061578;28;20057;-53
2024/02/04 03:46:56;;;;;;;2.03;1.00;;;20.30;47.10;;;;;;5094671;28;20155;-53
2024/02/04 03:49:22;;;;;;;2.35;1.30;;;20.30;47.10;;;;;;5112580;28;20054;-56
2024/02/04 03:51:49;;;;;;;1.77;1.13;;;20.30;47.10;;;;;;5112447;28;20058;-50
2024/02/04 03:54:16;;;;;;;1.52;0.90;;;20.30;47.10;;;;;;5094026;28;20032;-52
2024/02/04 03:56:42;;;;;;;1.88;1.00;;;20.30;47.70;;;;;;5114936;28;20057;-51
2024/02/04 03:59:10;;;;;;;2.38;0.98;;;20.30;47.10;;;;;;5116761;28;20674;-49
2024/02/04 04:01:36;;;;;;;4.35;1.05;;;20.30;47.00;;;;;;5115945;28;20027;-54
2024/02/04 04:04:02;;;;;;;1.70;0.80;;;20.30;47.00;;;;;;5115438;28;20043;-51
2024/02/04 04:06:28;;;;;;;3.33;1.15;;;20.30;47.00;;;;;;5116762;28;20027;-52
2024/02/04 04:08:54;;;;;;;2.92;1.00;;;20.30;46.90;;;;;;5116926;28;20031;-52
2024/02/04 04:11:19;;;;;;;2.25;0.70;;;20.30;46.90;;;;;;5116070;28;20016;-49
2024/02/04 04:13:45;;;;;;;2.55;0.90;;;20.30;46.90;;;;;;5115753;28;20099;-55
2024/02/04 04:16:11;;;;;;;1.73;1.02;;;20.20;46.80;;;;;;5116477;28;20051;-49
2024/02/04 04:18:38;;;;;;;1.95;0.88;;;20.30;46.80;;;;;;5116622;28;20092;-55
2024/02/04 04:21:04;;;;;;;1.52;0.90;;;20.20;46.70;;;;;;5116613;28;20023;-53
2024/02/04 04:23:29;;;;;;;2.15;1.00;;;20.20;46.70;;;;;;5098712;28;20066;-52
2024/02/04 04:25:55;;;;;;;2.45;0.90;;;20.20;46.70;;;;;;5097434;28;20339;-53
2024/02/04 04:28:21;;;;;;;2.03;0.90;;;20.20;46.60;;;;;;5116692;28;20110;-56
2024/02/04 04:30:47;;;;;;;2.10;0.88;;;20.20;46.60;;;;;;5098074;28;20027;-54
2024/02/04 04:33:13;;;;;;;1.95;1.10;;;20.20;46.60;;;;;;5116069;28;20330;-51
2024/02/04 04:35:39;;;;;;;0.98;0.70;;;20.20;46.60;;;;;;5098015;28;20093;-54
2024/02/04 04:38:04;;;;;;;2.13;0.80;;;20.20;46.50;;;;;;5115955;28;20434;-53
2024/02/04 04:40:31;;;;;;;2.28;0.80;;;20.20;46.60;;;;;;5097475;28;20454;-51
2024/02/04 04:42:57;;;;;;;1.05;0.70;;;20.20;46.50;;;;;;5097677;28;20023;-56
2024/02/04 04:45:23;;;;;;;2.22;1.00;;;20.20;46.50;;;;;;5115288;28;20118;-52
2024/02/04 04:47:48;;;;;;;1.42;0.98;;;20.20;46.50;;;;;;5116252;28;20015;-52
2024/02/04 04:50:15;;;;;;;1.83;0.80;;;20.20;46.50;;;;;;5097973;28;20098;-57
2024/02/04 04:52:41;;;;;;;2.20;1.00;;;20.20;46.50;;;;;;5097776;28;20037;-56
2024/02/04 04:55:08;;;;;;;3.33;1.20;;;20.20;46.50;;;;;;5115340;28;21631;-53
2024/02/04 04:57:33;;;;;;;2.25;1.00;;;20.20;46.50;;;;;;5115004;28;20390;-54
2024/02/04 05:00:04;;;;;;;1.95;1.20;;;20.20;46.50;;;;;;5115864;28;20016;-56
2024/02/04 05:02:29;;;;;;;3.00;1.10;;;20.20;46.50;;;;;;5115263;28;20075;-53
2024/02/04 05:04:55;;;;;;;2.33;0.90;;;20.20;46.50;;;;;;5112686;28;20384;-51
2024/02/04 05:07:21;;;;;;;1.88;0.82;;;20.10;46.50;;;;;;5114364;28;20426;-54
2024/02/04 05:09:47;;;;;;;3.50;1.10;;;20.20;46.50;;;;;;5116351;28;20035;-53
2024/02/04 05:12:13;;;;;;;2.75;1.20;;;20.20;46.50;;;;;;5097285;28;20042;-52
2024/02/04 05:14:39;;;;;;;2.55;1.13;;;20.10;46.50;;;;;;5115257;28;20021;-56
2024/02/04 05:17:05;;;;;;;2.05;0.80;;;20.10;46.50;;;;;;5097333;28;20363;-51
2024/02/04 05:19:31;;;;;;;1.55;1.00;;;20.10;46.50;;;;;;5113626;28;20030;-52
2024/02/04 05:21:57;;;;;;;1.42;1.05;;;20.10;46.50;;;;;;5115119;28;20401;-51
2024/02/04 05:24:23;;;;;;;2.38;1.10;;;20.10;46.50;;;;;;5114540;28;20019;-53
2024/02/04 05:26:48;;;;;;;3.47;1.40;;;20.10;46.50;;;;;;5115028;28;20102;-53
2024/02/04 05:29:14;;;;;;;2.17;1.00;;;20.10;46.50;;;;;;5114892;28;20015;-56
2024/02/04 05:31:42;;;;;;;2.55;1.20;;;20.10;47.00;;;;;;5116358;28;20059;-48
2024/02/04 05:34:08;;;;;;;1.63;0.60;;;20.10;46.40;;;;;;5116144;28;20058;-54
2024/02/04 05:36:34;;;;;;;1.90;0.90;;;20.10;46.40;;;;;;5115774;28;20090;-54
2024/02/04 05:39:11;;;;;;;1.30;0.80;;;20.10;46.40;;;;;;5115343;28;20027;-51
2024/02/04 05:41:37;;;;;;;1.63;0.80;;;20.10;46.40;;;;;;5113455;28;20045;-51
2024/02/04 05:44:03;;;;;;;1.60;0.70;;;20.10;46.40;;;;;;5115950;28;20026;-51
2024/02/04 05:46:29;;;;;;;1.33;0.80;;;20.10;46.40;;;;;;5114920;28;20361;-54
2024/02/04 05:48:54;;;;;;;1.80;0.80;;;20.10;46.40;;;;;;5114734;28;20035;-51
2024/02/04 05:51:21;;;;;;;1.40;0.63;;;20.10;46.40;;;;;;5115329;28;20070;-50
2024/02/04 05:53:47;;;;;;;2.67;1.02;;;20.10;46.40;;;;;;5115884;28;20028;-49
2024/02/04 05:56:13;;;;;;;1.58;0.70;;;20.10;46.40;;;;;;5115755;28;21089;-55
2024/02/04 05:58:39;;;;;;;2.15;0.98;;;20.10;46.40;;;;;;5115070;28;20059;-53
2024/02/04 06:01:05;;;;;;;2.42;0.90;;;20.10;46.40;;;;;;5112562;28;20031;-56
2024/02/04 06:03:31;;;;;;;1.83;0.90;;;20.10;46.40;;;;;;5097584;28;20031;-56
2024/02/04 06:05:57;;;;;;;2.47;1.27;;;20.00;46.30;;;;;;5115238;28;20324;-55
2024/02/04 06:08:23;;;;;;;2.85;1.00;;;20.00;46.30;;;;;;5115539;28;20092;-52
2024/02/04 06:10:49;;;;;;;2.42;1.00;;;20.00;46.30;;;;;;5114964;28;20031;-52
2024/02/04 06:13:15;;;;;;;1.73;0.90;;;20.00;46.30;;;;;;5114800;28;20099;-50
2024/02/04 06:15:40;;;;;;;1.98;0.90;;;20.00;46.30;;;;;;5114975;28;20024;-53
2024/02/04 06:18:06;;;;;;;1.48;0.80;;;20.00;46.30;;;;;;5114825;28;20331;-55
2024/02/04 06:20:32;;;;;;;2.47;0.98;;;20.00;46.30;;;;;;5114456;28;20034;-54
2024/02/04 06:22:58;;;;;;;1.73;0.82;;;20.00;46.30;;;;;;5114847;28;20053;-52
2024/02/04 06:25:24;;;;;;;1.30;0.80;;;20.00;46.30;;;;;;5115396;28;20023;-53
2024/02/04 06:27:49;;;;;;;1.83;0.80;;;20.00;46.30;;;;;;5114417;28;20399;-54
2024/02/04 06:30:16;;;;;;;1.52;0.73;;;20.00;46.20;;;;;;5114714;28;20050;-53
2024/02/04 06:32:42;;;;;;;1.98;0.90;;;20.00;46.30;;;;;;5112355;28;20028;-54
2024/02/04 06:35:08;;;;;;;1.45;0.70;;;20.00;46.20;;;;;;5115017;28;20074;-55
2024/02/04 06:37:34;;;;;;;1.60;0.88;;;20.00;46.20;;;;;;5114742;28;20197;-52
2024/02/04 06:39:59;;;;;;;1.90;0.80;;;20.00;46.90;;;;;;5114977;28;20112;-52
2024/02/04 06:42:25;;;;;;;1.20;0.88;;;20.00;46.30;;;;;;5079281;28;20392;-52
2024/02/04 06:44:51;;;;;;;2.25;1.00;;;20.00;46.20;;;;;;5114509;28;20047;-54
2024/02/04 06:47:17;;;;;;;1.98;0.80;;;20.00;46.20;;;;;;5096302;28;20062;-52
2024/02/04 06:49:45;;;;;;;2.00;0.80;;;20.00;46.20;;;;;;5114388;28;20458;-51
2024/02/04 06:52:11;;;;;;;3.05;0.60;;;20.00;46.30;;;;;;5114515;28;20351;-55
2024/02/04 06:54:37;;;;;;;1.98;0.80;;;20.00;46.30;;;;;;5114636;28;20035;-49
2024/02/04 06:57:03;;;;;;;1.90;0.90;;;19.90;46.20;;;;;;5113081;28;20606;-51
2024/02/04 06:59:29;;;;;;;1.73;0.80;;;20.00;46.30;;;;;;5113649;28;20030;-54
2024/02/04 07:01:55;;;;;;;1.63;1.00;;;20.00;46.30;;;;;;5095719;28;20050;-50
2024/02/04 07:04:26;;;;;;;1.88;0.90;;;19.90;46.30;;;;;;5112736;28;20069;-53
2024/02/04 07:06:52;;;;;;;1.83;0.80;;;20.00;47.00;;;;;;5113082;28;20028;-55
2024/02/04 07:09:18;;;;;;;2.47;1.02;;;19.90;46.40;;;;;;5114154;28;20042;-55
2024/02/04 07:11:44;;;;;;;3.20;1.25;;;19.90;46.50;;;;;;5104852;28;20028;-53
2024/02/04 07:14:10;;;;;;;1.40;1.00;;;19.90;46.50;;;;;;5107187;28;20047;-54
2024/02/04 07:16:36;;;;;;;1.52;1.00;;;19.90;46.50;;;;;;5113648;28;20043;-54
2024/02/04 07:19:02;;;;;;;2.72;1.50;;;19.90;46.60;;;;;;5114024;28;20024;-55
2024/02/04 07:21:28;;;;;;;1.85;1.20;;;19.90;46.60;;;;;;5114301;28;20035;-54
2024/02/04 07:23:54;;;;;;;2.60;1.30;;;19.90;46.80;;;;;;5114235;28;20023;-51
2024/02/04 07:26:19;;;;;;;2.70;1.10;;;19.90;46.70;;;;;;5114216;28;20400;-53
2024/02/04 07:28:45;;;;;;;1.90;1.02;;;19.90;46.70;;;;;;5113912;28;20431;-52
2024/02/04 07:31:11;;;;;;;2.10;1.20;;;19.90;46.80;;;;;;5116292;28;20058;-52
2024/02/04 07:33:37;;;;;;;2.67;1.27;;;19.90;46.80;;;;;;5100084;28;20023;-53
2024/02/04 07:36:03;;;;;;;1.98;1.05;;;19.90;46.80;;;;;;5118507;28;20023;-54
2024/02/04 07:38:28;;;;;;;2.15;1.10;;;19.90;46.80;;;;;;5118391;28;20062;-54
2024/02/04 07:40:58;;;;;;;2.30;0.95;;;19.90;46.90;;;;;;5119370;28;20449;-52
2024/02/04 07:43:24;;;;;;;2.40;0.80;;;19.90;46.90;;;;;;5120160;28;20091;-55
2024/02/04 07:45:50;;;;;;;2.58;1.08;;;19.90;46.90;;;;;;5084011;28;20048;-53
2024/02/04 07:48:17;;;;;;;2.72;1.17;;;19.90;46.90;;;;;;5078957;28;20043;-54
2024/02/04 07:50:43;;;;;;;1.92;1.15;;;19.90;47.00;;;;;;5078671;28;20029;-53
2024/02/04 07:53:09;;;;;;;2.03;1.00;;;19.90;47.00;;;;;;5078861;28;20339;-51
2024/02/04 07:55:34;;;;;;;3.05;1.20;;;19.80;46.90;;;;;;5077917;28;20028;-51
2024/02/04 07:58:00;;;;;;;2.75;1.10;;;19.90;47.00;;;;;;5078798;28;20115;-51
2024/02/04 08:00:26;;;;;;;2.47;0.90;;;19.90;47.00;;;;;;5078644;28;20119;-50
2024/02/04 08:02:52;;;;;;;2.42;0.90;;;19.90;47.00;;;;;;5076933;28;20336;-53
2024/02/04 08:05:18;;;;;;;2.35;1.10;;;19.90;47.00;;;;;;5087670;28;20086;-51
2024/02/04 08:07:44;;;;;;;2.55;1.00;;;19.90;47.00;;;;;;5077429;28;20017;-51
2024/02/04 08:10:10;;;;;;;4.28;1.60;;;19.90;47.10;;;;;;5077410;28;20059;-54
2024/02/04 08:12:36;;;;;;;3.30;1.00;;;19.80;47.00;;;;;;5076211;28;20056;-54
2024/02/04 08:15:02;;;;;;;2.45;1.05;;;19.90;47.10;;;;;;5075688;28;20440;-53
2024/02/04 08:17:30;;;;;;;2.90;0.90;;;19.90;47.10;;;;;;5075581;28;20044;-49
2024/02/04 08:19:57;;;;;;;3.28;1.15;;;19.80;47.10;;;;;;5075509;28;20048;-52
2024/02/04 08:22:22;;;;;;;3.13;1.10;;;19.80;47.00;;;;;;5076724;28;20455;-51
2024/02/04 08:24:48;;;;;;;2.30;0.80;;;19.80;47.00;;;;;;5076027;28;20032;-51
2024/02/04 08:27:18;;;;;;;3.22;0.80;;;19.90;47.10;;;;;;5075778;28;20476;-52
2024/02/04 08:29:44;;;;;;;1.95;0.85;;;19.80;47.00;;;;;;5076901;28;20029;-50
2024/02/04 08:32:10;;;;;;;4.28;0.80;;;19.80;47.00;;;;;;5076164;28;20070;-51
2024/02/04 08:34:36;;;;;;;3.53;1.10;;;19.80;46.90;;;;;;5076351;28;20066;-52
2024/02/04 08:37:03;;;;;;;3.15;1.25;;;19.80;46.90;;;;;;5075946;28;20127;-49
2024/02/04 08:39:29;;;;;;;2.25;1.15;;;19.80;46.90;;;;;;5076074;28;20024;-52
2024/02/04 08:41:55;;;;;;;2.15;0.88;;;19.80;46.90;;;;;;5074633;28;20028;-50
2024/02/04 08:44:21;;;;;;;2.88;1.17;;;19.80;46.90;;;;;;5075468;28;20025;-51
2024/02/04 08:46:47;;;;;;;3.13;0.88;;;19.80;47.00;;;;;;5074319;28;20082;-51
2024/02/04 08:49:13;;;;;;;3.22;0.93;;;19.80;47.00;;;;;;5076163;28;20021;-49
2024/02/04 08:51:39;;;;;;;3.40;1.10;;;19.80;47.00;;;;;;5075845;28;20029;-55
2024/02/04 08:54:04;;;;;;;3.05;1.20;;;19.80;47.10;;;;;;5074816;28;20024;-53
2024/02/04 08:56:30;;;;;;;2.70;1.20;;;19.90;47.10;;;;;;5057989;28;20130;-53
2024/02/04 08:58:56;;;;;;;3.78;0.93;;;19.90;47.10;;;;;;5075331;28;20107;-55
2024/02/04 09:01:22;;;;;;;2.97;1.02;;;19.90;47.10;;;;;;5075533;28;20032;-52
2024/02/04 09:03:48;;;;;;;2.63;1.00;;;19.90;47.10;;;;;;5075132;28;20518;-50
2024/02/04 09:06:14;;;;;;;2.47;1.05;;;19.90;47.10;;;;;;5074515;28;20094;-54
2024/02/04 09:08:40;;;;;;;2.88;0.90;;;19.90;47.10;;;;;;5075095;28;20031;-51
2024/02/04 09:11:05;;;;;;;4.43;1.10;;;20.00;47.10;;;;;;5056996;28;20421;-54
2024/02/04 09:13:31;;;;;;;2.97;1.00;;;20.00;47.10;;;;;;5074382;28;20044;-53
2024/02/04 09:15:57;;;;;;;2.83;1.10;;;20.00;47.00;;;;;;5075921;28;20052;-51
2024/02/04 09:18:23;;;;;;;2.30;1.15;;;20.00;47.00;;;;;;5074618;28;20055;-49
2024/02/04 09:20:49;;;;;;;1.83;0.90;;;20.00;46.90;;;;;;5076289;28;20067;-49
2024/02/04 09:23:15;;;;;;;4.47;1.00;;;20.10;46.90;;;;;;5074973;28;20028;-52
2024/02/04 09:25:40;;;;;;;2.80;0.90;;;20.10;46.90;;;;;;5066241;28;20028;-51
2024/02/04 09:28:06;;;;;;;2.80;0.80;;;20.10;46.80;;;;;;5074992;28;20344;-51
2024/02/04 09:30:32;;;;;;;2.60;1.00;;;20.20;46.80;;;;;;5075285;28;20040;-51
2024/02/04 09:32:58;;;;;;;3.83;0.90;;;20.20;46.80;;;;;;5075317;28;20032;-60
2024/02/04 09:35:23;;;;;;;2.97;1.00;;;20.30;46.90;;;;;;5076063;28;20029;-57
2024/02/04 09:37:49;;;;;;;4.30;0.75;;;20.30;46.80;;;;;;5075178;28;20462;-56
2024/02/04 09:40:15;;;;;;;0.88;0.40;;;20.30;46.60;;;;;;5057050;28;20358;-59
2024/02/04 09:42:41;;;;;;;0.50;0.40;;;20.30;46.40;;;;;;5074320;28;20039;-60
2024/02/04 09:45:08;;;;;;;0.63;0.38;;;20.30;46.20;;;;;;5075939;28;20041;-55
2024/02/04 09:47:35;;;;;;;1.15;0.63;;;20.30;46.10;;;;;;5088759;28;20056;-52
2024/02/04 09:50:01;;;;;;;1.52;0.60;;;20.30;46.10;;;;;;5090631;28;20479;-55
2024/02/04 09:52:33;;;;;;;1.00;0.43;;;20.30;46.00;;;;;;5115397;28;20035;-54
2024/02/04 09:55:05;;;;;;;1.42;0.57;;;20.30;46.00;;;;;;5116169;28;20028;-57
2024/02/04 09:57:35;;;;;;;0.70;0.50;;;20.30;46.10;;;;;;5116347;28;20096;-57
2024/02/04 10:00:05;;;;;;;1.73;0.60;;;20.30;46.10;;;;;;5116211;28;20455;-57
2024/02/04 10:02:37;;;;;;;1.52;0.70;;;20.40;46.20;;;;;;5114944;28;20112;-54
2024/02/04 10:05:03;;;;;;;2.38;0.95;;;20.40;46.20;;;;;;5114947;28;20324;-59
2024/02/04 10:07:29;;;;;;;1.65;0.70;;;20.40;46.30;;;;;;5114435;27;20042;-56
2024/02/04 10:09:56;;;;;;;1.92;0.93;;;20.40;46.40;;;;;;5114337;28;20035;-58
2024/02/04 10:12:21;;;;;;;2.20;1.17;;;20.40;46.50;;;;;;5112522;28;20107;-56
2024/02/04 10:14:49;;;;;;;3.65;2.13;;;20.50;46.80;;;;;;5097089;28;20102;-56
2024/02/04 10:17:20;;;;;;;3.85;1.83;;;20.50;47.10;;;;;;5096476;28;20347;-58
2024/02/04 10:19:49;;;;;;;5.03;2.40;;;20.60;47.70;;;;;;5115027;28;20062;-56
2024/02/04 10:22:17;;;;;;;5.13;3.00;;;20.60;48.10;;;;;;5114788;28;20111;-55
2024/02/04 10:24:43;;;;;;;5.50;3.00;;;20.60;48.60;;;;;;5114677;28;20035;-58
2024/02/04 10:27:12;;;;;;;4.05;2.70;;;20.70;49.40;;;;;;5114992;28;20315;-53
2024/02/04 10:29:38;;;;;;;6.05;3.05;;;20.70;50.60;;;;;;5114652;28;20139;-54
2024/02/04 10:32:04;;;;;;;3.80;2.42;;;20.70;50.40;;;;;;5115527;27;20015;-59
2024/02/04 10:34:30;;;;;;;7.00;2.67;;;20.80;50.70;;;;;;5114992;28;20031;-57
2024/02/04 10:36:59;;;;;;;7.00;3.08;;;20.80;50.80;;;;;;5114111;28;20044;-55
2024/02/04 10:39:25;;;;;;;5.72;3.42;;;20.90;50.70;;;;;;5115265;28;20039;-56
2024/02/04 10:41:52;;;;;;;5.72;3.05;;;20.90;50.80;;;;;;5096363;28;20068;-56
2024/02/04 10:44:22;;;;;;;6.70;3.50;;;20.90;51.00;;;;;;5114963;28;20439;-57
2024/02/04 10:46:50;;;;;;;7.13;2.72;;;21.00;51.70;;;;;;5114377;28;20020;-65
2024/02/04 10:49:17;;;;;;;4.45;1.90;;;21.00;51.70;;;;;;5129316;27;20026;-66
2024/02/04 10:51:45;;;;;;;2.05;1.10;;;21.00;50.70;;;;;;5079088;28;20023;-64
2024/02/04 10:54:15;;;;;;;1.52;1.00;;;21.00;49.80;;;;;;5079807;28;20091;-64
2024/02/04 10:56:55;;;;;;;1.60;0.98;;;21.00;49.40;;;;;;5095883;28;20036;-64
2024/02/04 10:59:22;;;;;;;1.88;1.10;;;20.90;49.00;;;;;;5114155;28;20027;-63
2024/02/04 11:01:50;;;;;;;1.40;0.80;;;20.90;49.00;;;;;;5095846;28;20035;-59
2024/02/04 11:04:18;;;;;;;3.50;1.50;;;20.80;48.80;;;;;;5113281;28;20016;-59
2024/02/04 11:06:45;;;;;;;3.15;1.45;;;20.80;48.90;;;;;;5113088;28;20427;-55
2024/02/04 11:09:14;;;;;;;5.57;2.05;;;20.80;49.50;;;;;;5114341;28;20020;-58
2024/02/04 11:11:40;;;;;;;4.40;1.95;;;20.90;50.00;;;;;;5112988;28;20027;-58
2024/02/04 11:14:12;;;;;;;7.35;2.65;;;20.90;50.60;;;;;;5113618;28;20480;-56
2024/02/04 11:17:02;;;;;;;5.35;2.05;;;20.90;51.00;;;;;;5112652;28;20036;-58
2024/02/04 11:19:46;;;;;;;4.57;2.40;;;21.00;51.20;;;;;;5113537;28;20152;-59
2024/02/04 11:22:34;;;;;;;4.25;1.98;;;21.00;51.10;;;;;;5113605;28;20030;-56
2024/02/04 11:25:27;;;;;;;3.20;1.67;;;21.00;50.90;;;;;;5113054;28;20023;-61
2024/02/04 11:27:53;;;;;;;3.38;1.30;;;21.00;50.80;;;;;;5113640;28;20038;-60
2024/02/04 11:30:19;;;;;;;5.28;1.52;;;21.00;50.70;;;;;;5096928;28;20032;-62
2024/02/04 11:32:46;;;;;;;3.78;1.58;;;21.10;50.60;;;;;;5114775;28;20039;-61
2024/02/04 11:35:12;;;;;;;2.25;1.20;;;21.10;50.40;;;;;;5095793;28;20464;-62
2024/02/04 11:37:42;;;;;;;4.75;1.25;;;21.10;50.30;;;;;;5095621;28;20032;-58
2024/02/04 11:40:13;;;;;;;2.65;1.30;;;21.20;50.20;;;;;;5113881;28;20044;-54
2024/02/04 11:42:39;;;;;;;1.98;1.10;;;21.10;49.90;;;;;;5112967;28;20043;-55
2024/02/04 11:45:09;;;;;;;1.95;0.98;;;21.20;49.80;;;;;;5103456;28;20379;-52
2024/02/04 11:47:36;;;;;;;2.40;1.20;;;21.20;49.60;;;;;;5088380;28;20043;-54
2024/02/04 11:50:03;;;;;;;3.35;1.05;;;21.20;49.40;;;;;;5081610;28;20035;-51
2024/02/04 11:52:29;;;;;;;1.75;0.70;;;21.20;49.30;;;;;;5064549;28;20039;-53
2024/02/04 11:54:55;;;;;;;7.65;0.93;;;21.20;49.20;;;;;;5091998;28;20497;-53
2024/02/04 11:57:22;;;;;;;1.95;0.80;;;21.20;49.10;;;;;;5076425;28;20046;-57
2024/02/04 11:59:48;;;;;;;3.45;0.93;;;21.20;48.90;;;;;;5078341;28;20453;-55
2024/02/04 12:02:17;;;;;;;1.75;0.60;;;21.20;48.80;;;;;;5076785;28;20040;-56
2024/02/04 12:04:44;;;;;;;1.10;0.55;;;21.20;48.70;;;;;;5075866;28;20025;-55
2024/02/04 12:07:10;;;;;;;1.13;0.52;;;21.20;48.70;;;;;;5070176;28;20158;-57
2024/02/04 12:09:37;;;;;;;1.05;0.60;;;21.20;48.60;;;;;;5086733;28;20495;-54
2024/02/04 12:12:05;;;;;;;1.88;0.85;;;21.20;48.50;;;;;;5061221;28;20024;-53
2024/02/04 12:14:31;;;;;;;1.50;0.68;;;21.20;48.50;;;;;;5074994;28;20511;-52
2024/02/04 12:16:59;;;;;;;1.73;0.60;;;21.10;48.40;;;;;;5076768;28;20048;-57
2024/02/04 12:19:25;;;;;;;0.82;0.60;;;21.20;48.40;;;;;;5078335;28;20082;-55
2024/02/04 12:21:51;;;;;;;2.13;1.00;;;21.10;48.30;;;;;;5085356;28;20424;-56
2024/02/04 12:24:18;;;;;;;0.88;0.63;;;21.10;48.30;;;;;;5071022;28;20031;-59
2024/02/04 12:26:47;;;;;;;1.35;0.60;;;21.10;48.20;;;;;;5093142;28;20479;-55
2024/02/04 12:29:14;;;;;;;1.58;0.65;;;21.10;48.20;;;;;;5091861;28;20032;-63
2024/02/04 12:31:40;;;;;;;0.82;0.60;;;21.20;48.20;;;;;;5073271;28;20085;-60
2024/02/04 12:34:07;;;;;;;0.88;0.50;;;21.30;48.10;;;;;;5093052;28;20471;-60
2024/02/04 12:36:33;;;;;;;0.80;0.60;;;21.30;48.00;;;;;;5082265;28;20032;-61
2024/02/04 12:39:01;;;;;;;1.45;0.75;;;21.40;47.90;;;;;;5092345;28;20081;-60
2024/02/04 12:41:27;;;;;;;1.67;0.50;;;21.50;47.70;;;;;;5091725;28;20039;-59
2024/02/04 12:43:55;;;;;;;1.52;0.68;;;21.60;47.60;;;;;;5086708;28;20039;-61
2024/02/04 12:46:22;;;;;;;1.40;0.70;;;21.60;47.40;;;;;;5095474;28;20044;-60